Time;durP1;ratioP1;P1;durP2;ratioP2;P2;SDS_P1;SDS_P2;PMS_P1;PMS_P2;Temp;Humidity;BMP_temperature;BMP_pressure;BME280_temperature;BME280_humidity;BME280_pressure;Samples;Min_cycle;Max_cycle;Signal;HPM_P1;HPM_P2
2023/07/15 00:04:51;;;;;;;8.00;4.10;;;;;;;17.99;62.34;100422.67;224103;1265;138672;-88
2023/07/15 00:09:52;;;;;;;9.40;4.50;;;;;;;17.94;62.78;100419.54;223539;1266;139619;-87
2023/07/15 00:14:53;;;;;;;10.40;3.90;;;;;;;17.90;62.96;100421.91;224049;1265;137942;-87
2023/07/15 00:19:53;;;;;;;12.40;4.00;;;;;;;17.85;63.19;100422.63;223567;1266;140392;-87
2023/07/15 00:24:55;;;;;;;8.00;3.90;;;;;;;17.81;63.12;100421.05;224157;1265;110316;-87
2023/07/15 00:29:55;;;;;;;8.60;4.10;;;;;;;17.76;63.56;100414.86;223605;1264;140152;-87
2023/07/15 00:34:56;;;;;;;9.60;4.50;;;;;;;17.70;63.81;100415.11;224150;1268;137726;-87
2023/07/15 00:39:56;;;;;;;9.30;3.90;;;;;;;17.65;63.89;100411.08;223563;1267;139731;-87
2023/07/15 00:44:57;;;;;;;151.80;35.20;;;;;;;17.61;64.24;100406.77;224113;1267;138708;-87
2023/07/15 00:49:57;;;;;;;14.00;5.10;;;;;;;17.59;64.25;100400.85;223532;1268;141574;-87
2023/07/15 00:54:58;;;;;;;8.10;4.20;;;;;;;17.55;64.51;100389.94;224233;1264;95953;-87
2023/07/15 00:59:59;;;;;;;9.30;4.80;;;;;;;17.52;64.54;100388.90;223481;1266;139287;-87
2023/07/15 01:05:00;;;;;;;8.40;4.40;;;;;;;17.49;64.66;100388.14;224199;1265;137904;-88
2023/07/15 01:10:00;;;;;;;11.20;4.40;;;;;;;17.47;64.58;100381.19;223588;1268;140634;-87
2023/07/15 01:15:02;;;;;;;8.30;4.40;;;;;;;17.45;64.77;100380.59;224127;1268;138913;-87
2023/07/15 01:20:05;;;;;;;8.30;4.50;;;;;;;17.42;65.01;100379.61;223570;1266;141349;-87
2023/07/15 01:25:06;;;;;;;8.90;4.10;;;;;;;17.39;65.10;100374.48;224164;1266;110376;-87
2023/07/15 01:30:07;;;;;;;9.10;4.80;;;;;;;17.36;65.45;100374.52;223608;1264;140066;-87
2023/07/15 01:35:08;;;;;;;11.20;4.80;;;;;;;17.33;65.57;100374.73;224011;1264;138276;-88
2023/07/15 01:40:09;;;;;;;8.10;4.00;;;;;;;17.29;65.66;100373.67;223547;1264;142248;-87
2023/07/15 01:45:10;;;;;;;9.20;4.80;;;;;;;17.27;65.71;100375.32;224060;1264;138221;-86
2023/07/15 01:50:10;;;;;;;44.50;27.10;;;;;;;17.23;65.87;100371.00;223526;1264;140288;-87
2023/07/15 01:55:11;;;;;;;11.60;4.70;;;;;;;17.19;65.96;100363.20;224067;1264;112445;-87
2023/07/15 02:00:16;;;;;;;8.30;4.30;;;;;;;17.15;66.20;100358.81;223585;1264;140645;-86
2023/07/15 02:05:16;;;;;;;11.90;5.00;;;;;;;17.11;66.26;100354.04;224058;1264;139259;-88
2023/07/15 02:10:17;;;;;;;8.90;4.30;;;;;;;17.08;66.60;100354.73;223594;1264;140207;-87
2023/07/15 02:15:18;;;;;;;8.80;3.30;;;;;;;17.04;66.60;100353.29;224069;1264;138115;-87
2023/07/15 02:20:19;;;;;;;18.70;4.90;;;;;;;17.02;66.70;100352.06;223547;1264;140382;-87
2023/07/15 02:25:19;;;;;;;9.70;4.10;;;;;;;16.99;66.73;100342.32;224116;1264;95888;-87
2023/07/15 02:30:20;;;;;;;101.70;22.30;;;;;;;16.97;66.78;100330.75;223563;1264;139282;-87
2023/07/15 02:35:21;;;;;;;1999.90;999.90;;;;;;;16.98;67.11;100333.36;224155;1264;138609;-87
2023/07/15 02:40:22;;;;;;;10.20;4.80;;;;;;;16.97;67.29;100334.89;223535;1264;141265;-87
2023/07/15 02:45:22;;;;;;;8.70;4.80;;;;;;;16.97;67.32;100334.09;224004;1264;138885;-88
2023/07/15 02:50:23;;;;;;;9.90;4.20;;;;;;;16.98;67.58;100329.64;223637;1264;140986;-89
2023/07/15 02:55:25;;;;;;;8.60;4.50;;;;;;;16.98;67.68;100326.21;224045;1264;137942;-88
2023/07/15 03:00:26;;;;;;;10.80;4.70;;;;;;;16.99;67.66;100323.90;223719;1264;142941;-88
2023/07/15 03:05:28;;;;;;;11.00;4.70;;;;;;;16.99;67.97;100324.04;224104;1264;137992;-89
2023/07/15 03:10:29;;;;;;;10.10;4.80;;;;;;;17.00;67.97;100323.17;223574;1264;140577;-88
2023/07/15 03:15:30;;;;;;;239.00;227.00;;;;;;;17.00;68.12;100325.94;224141;1264;139021;-87
2023/07/15 03:20:33;;;;;;;845.90;778.80;;;;;;;17.01;68.11;100320.92;224052;1264;97200;-89
2023/07/15 03:25:33;;;;;;;832.70;775.80;;;;;;;17.01;68.13;100311.09;224078;1264;139469;-88
2023/07/15 03:30:34;;;;;;;104.70;98.60;;;;;;;17.01;68.24;100307.18;223933;1264;141764;-87
2023/07/15 03:35:34;;;;;;;13.60;12.40;;;;;;;17.02;68.43;100304.22;224317;1263;138743;-88
2023/07/15 03:40:35;;;;;;;17.30;15.50;;;;;;;17.05;68.61;100303.63;223576;1264;140175;-88
2023/07/15 03:45:35;;;;;;;29.70;27.00;;;;;;;17.09;68.84;100304.98;224352;1263;138817;-88
2023/07/15 03:50:36;;;;;;;61.30;57.30;;;;;;;17.14;68.86;100300.05;223768;1264;140451;-88
2023/07/15 03:55:37;;;;;;;158.50;149.70;;;;;;;17.18;68.98;100295.36;224135;1263;138572;-88
2023/07/15 04:00:38;;;;;;;609.80;568.50;;;;;;;17.22;69.13;100289.16;223605;1264;141391;-89
2023/07/15 04:05:38;;;;;;;1037.30;943.60;;;;;;;17.27;69.15;100283.90;224122;1264;139000;-89
2023/07/15 04:10:39;;;;;;;1481.40;999.90;;;;;;;17.34;69.27;100286.55;223503;1263;141849;-87
2023/07/15 04:15:39;;;;;;;1999.90;999.90;;;;;;;17.43;69.32;100285.23;224263;1264;139469;-88
2023/07/15 04:20:40;;;;;;;1999.90;999.90;;;;;;;17.52;69.30;100279.40;223703;1264;141962;-87
2023/07/15 04:25:40;;;;;;;1999.90;999.90;;;;;;;17.63;69.27;100282.38;224058;1265;140143;-87
2023/07/15 04:30:41;;;;;;;1999.90;999.90;;;;;;;17.73;69.37;100292.05;223732;1263;143070;-88
2023/07/15 04:35:41;;;;;;;1741.40;999.90;;;;;;;17.81;69.32;100292.09;224191;1265;139614;-86
2023/07/15 04:40:42;;;;;;;1227.10;997.80;;;;;;;17.91;69.41;100293.17;223632;1264;142694;-90
2023/07/15 04:45:42;;;;;;;817.40;741.80;;;;;;;17.99;69.53;100290.71;224117;1264;140204;-88
2023/07/15 04:50:45;;;;;;;776.00;700.00;;;;;;;18.09;69.58;100306.39;223588;1264;141788;-87
2023/07/15 04:55:46;;;;;;;885.80;807.70;;;;;;;18.20;69.75;100299.85;224172;1264;140558;-89
2023/07/15 05:00:50;;;;;;;1059.80;961.20;;;;;;;18.34;69.93;100288.98;223742;1264;141771;-87
2023/07/15 05:05:51;;;;;;;1166.20;999.90;;;;;;;18.47;69.78;100292.58;224068;1264;139893;-89
2023/07/15 05:10:51;;;;;;;1248.10;999.90;;;;;;;18.57;69.58;100299.83;223564;1264;142460;-90
2023/07/15 05:15:52;;;;;;;1354.60;999.90;;;;;;;18.69;69.39;100294.62;224060;1264;139788;-90
2023/07/15 05:20:54;;;;;;;1437.30;999.90;;;;;;;18.81;69.40;100287.14;223510;1264;141530;-89
2023/07/15 05:25:56;;;;;;;1528.40;999.90;;;;;;;18.99;69.38;100287.88;224106;1264;139660;-92
2023/07/15 05:30:58;;;;;;;1590.20;999.90;;;;;;;19.28;68.96;100277.75;223616;1264;142197;-91
2023/07/15 05:35:58;;;;;;;1682.80;999.90;;;;;;;19.71;68.46;100277.11;224124;1264;140202;-89
2023/07/15 05:40:58;;;;;;;1718.40;999.90;;;;;;;20.28;67.94;100276.71;223612;1264;141925;-89
2023/07/15 05:45:59;;;;;;;1750.60;999.90;;;;;;;20.96;66.39;100271.30;224147;1264;139710;-88
2023/07/15 05:50:59;;;;;;;1709.40;999.90;;;;;;;21.68;64.78;100266.52;223420;1265;141609;-87
2023/07/15 05:56:00;;;;;;;1934.50;999.90;;;;;;;22.38;63.20;100267.89;224153;1264;139702;-91
2023/07/15 06:01:00;;;;;;;1580.80;999.90;;;;;;;23.13;61.19;100264.23;223742;1263;141115;-89
2023/07/15 06:06:01;;;;;;;1418.80;999.90;;;;;;;23.78;59.13;100265.31;224177;1264;138616;-92
2023/07/15 06:11:02;;;;;;;1610.50;999.90;;;;;;;24.38;57.86;100261.20;223568;1264;140488;-90
2023/07/15 06:16:03;;;;;;;1507.00;999.90;;;;;;;25.01;56.29;100252.77;224140;1264;138997;-89
2023/07/15 06:21:03;;;;;;;1219.40;999.90;;;;;;;25.62;54.94;100250.62;223658;1264;140569;-88
2023/07/15 06:26:04;;;;;;;1279.10;999.90;;;;;;;26.27;53.90;100252.02;224292;1265;138813;-91
2023/07/15 06:31:08;;;;;;;1807.00;999.90;;;;;;;26.70;52.26;100252.06;223894;1265;142550;-90
2023/07/15 06:36:10;;;;;;;1999.90;999.90;;;;;;;27.16;51.25;100253.39;223999;1265;138688;-89
2023/07/15 06:41:11;;;;;;;1999.90;999.90;;;;;;;27.36;50.00;100256.48;223686;1264;140973;-88
2023/07/15 06:46:12;;;;;;;1999.90;999.90;;;;;;;27.85;49.39;100250.88;224148;1264;138951;-89
2023/07/15 06:51:14;;;;;;;1999.90;999.90;;;;;;;28.32;48.34;100246.85;223607;1264;140604;-89
2023/07/15 06:56:14;;;;;;;1999.90;999.90;;;;;;;28.62;47.92;100246.01;224092;1264;139504;-89
2023/07/15 07:01:15;;;;;;;1999.90;999.90;;;;;;;29.11;46.80;100250.64;223758;1266;140745;-88
2023/07/15 07:06:16;;;;;;;1521.20;999.90;;;;;;;29.35;46.04;100252.41;224142;1264;138852;-89
2023/07/15 07:11:16;;;;;;;1999.90;999.90;;;;;;;29.69;45.32;100246.19;223628;1265;140999;-88
2023/07/15 07:16:17;;;;;;;1819.30;999.90;;;;;;;29.78;44.08;100243.64;224148;1265;139059;-88
2023/07/15 07:21:17;;;;;;;1963.40;999.90;;;;;;;29.76;44.85;100236.30;223641;1264;140741;-87
2023/07/15 07:26:18;;;;;;;1273.40;956.00;;;;;;;30.04;43.88;100230.79;224159;1265;139671;-87
2023/07/15 07:31:19;;;;;;;1278.10;954.60;;;;;;;30.30;43.14;100228.59;223760;1264;141017;-92
2023/07/15 07:36:19;;;;;;;1241.10;940.30;;;;;;;30.33;43.01;100228.95;224128;1266;139689;-90
2023/07/15 07:41:20;;;;;;;779.60;702.50;;;;;;;30.50;42.86;100232.86;223681;1263;140879;-91
2023/07/15 07:46:20;;;;;;;1004.90;848.90;;;;;;;30.67;42.97;100234.13;224196;1264;138767;-88
2023/07/15 07:51:20;;;;;;;1908.30;997.60;;;;;;;31.32;42.58;100225.67;223610;1268;140782;-89
2023/07/15 07:56:21;;;;;;;1224.90;905.30;;;;;;;31.61;41.66;100226.56;224235;1266;139512;-90
2023/07/15 08:01:22;;;;;;;1577.40;997.60;;;;;;;31.74;41.40;100225.79;223770;1266;140361;-90
2023/07/15 08:06:24;;;;;;;1732.80;979.20;;;;;;;31.58;40.16;100219.96;224208;1264;139880;-88
2023/07/15 08:11:24;;;;;;;1081.40;860.60;;;;;;;31.24;40.39;100217.65;223518;1265;141092;-90
2023/07/15 08:16:39;;;;;;;1700.10;983.20;;;;;;;31.40;40.30;100207.77;224192;1266;139224;-91
2023/07/15 08:21:39;;;;;;;1386.00;967.10;;;;;;;31.84;39.65;100200.52;223582;1266;142429;-89
2023/07/15 08:26:40;;;;;;;972.00;832.20;;;;;;;32.32;39.86;100196.61;223993;1266;139656;-91
2023/07/15 08:31:40;;;;;;;491.10;450.20;;;;;;;32.88;38.59;100198.65;223620;1266;140822;-88
2023/07/15 08:36:40;;;;;;;635.90;575.50;;;;;;;33.51;37.23;100201.64;224240;1264;95921;-88
2023/07/15 08:41:42;;;;;;;636.20;568.10;;;;;;;34.08;36.74;100201.41;223619;1264;141016;-90
2023/07/15 08:46:43;;;;;;;357.50;326.80;;;;;;;34.70;36.26;100205.48;224090;1264;139028;-89
2023/07/15 08:51:44;;;;;;;260.40;239.00;;;;;;;35.22;35.95;100203.13;223350;1264;140571;-89
2023/07/15 08:56:45;;;;;;;251.40;230.50;;;;;;;35.40;34.80;100199.54;223936;1264;138641;-88
2023/07/15 09:01:46;;;;;;;81.80;76.10;;;;;;;36.07;34.37;100199.54;223528;1264;143181;-88
2023/07/15 09:06:47;;;;;;;177.80;164.00;;;;;;;36.64;33.39;100197.56;224168;1265;95914;-87
2023/07/15 09:11:50;;;;;;;156.60;144.60;;;;;;;37.20;32.54;100194.30;223571;1266;140672;-87
2023/07/15 09:16:56;;;;;;;614.40;552.30;;;;;;;37.70;31.75;100185.91;224053;1268;138793;-88
2023/07/15 09:22:08;;;;;;;304.90;281.30;;;;;;;38.23;30.87;100178.77;223517;1266;141622;-89
2023/07/15 09:27:09;;;;;;;251.90;232.40;;;;;;;38.53;29.80;100174.48;224136;1265;138788;-88
2023/07/15 09:32:20;;;;;;;335.00;308.10;;;;;;;39.05;29.36;100169.08;223607;1264;141823;-88
2023/07/15 09:37:30;;;;;;;109.20;101.50;;;;;;;39.56;28.20;100169.95;224268;1264;95898;-88
2023/07/15 09:42:52;;;;;;;166.00;153.60;;;;;;;39.27;28.11;100164.55;223434;1266;344692;-87
2023/07/15 09:47:53;;;;;;;100.50;92.80;;;;;;;39.44;27.75;100159.76;224146;1264;139005;-90
2023/07/15 09:52:54;;;;;;;355.00;324.30;;;;;;;38.94;28.12;100157.45;223539;1264;140832;-87
2023/07/15 09:58:21;;;;;;;35.60;32.90;;;;;;;39.13;28.20;100146.79;224246;1264;138572;-89
2023/07/15 10:03:28;;;;;;;67.80;62.40;;;;;;;39.57;27.43;100142.25;223573;1264;140970;-89
2023/07/15 10:08:29;;;;;;;78.00;72.40;;;;;;;39.91;27.39;100138.77;224009;1264;138325;-89
2023/07/15 10:13:29;;;;;;;151.30;138.70;;;;;;;39.79;26.60;100131.64;223625;1264;140274;-89
2023/07/15 10:18:33;;;;;;;74.40;68.80;;;;;;;39.83;26.79;100127.23;224304;1264;95918;-86
2023/07/15 10:23:34;;;;;;;60.90;55.80;;;;;;;40.49;25.98;100123.95;223577;1268;140721;-88
2023/07/15 10:28:36;;;;;;;59.90;55.40;;;;;;;40.54;25.29;100132.20;224043;1264;139220;-87
2023/07/15 10:33:52;;;;;;;61.60;56.50;;;;;;;40.43;25.12;100132.09;223611;1264;140379;-89
2023/07/15 10:39:08;;;;;;;55.30;51.10;;;;;;;40.48;24.78;100124.91;224098;1264;139540;-88
2023/07/15 10:44:23;;;;;;;77.20;71.70;;;;;;;40.40;24.93;100120.73;223981;1266;355242;-90
2023/07/15 10:49:24;;;;;;;19.70;17.90;;;;;;;40.71;24.50;100116.34;223613;1266;140749;-88
2023/07/15 10:54:27;;;;;;;8.10;3.50;;;;;;;40.49;23.29;100110.02;224099;1264;139348;-89
2023/07/15 10:59:35;;;;;;;5.90;3.10;;;;;;;40.42;23.62;100108.67;223566;1265;139923;-88
2023/07/15 11:04:37;;;;;;;7.40;3.50;;;;;;;40.52;23.05;100102.88;224102;1267;138281;-87
2023/07/15 11:09:41;;;;;;;6.50;3.00;;;;;;;40.62;22.29;100096.29;223514;1264;140382;-89
2023/07/15 11:14:43;;;;;;;5.50;2.90;;;;;;;40.56;22.13;100103.81;224097;1267;138058;-87
2023/07/15 11:19:43;;;;;;;6.10;3.10;;;;;;;40.24;21.95;100097.85;223580;1264;140409;-90
2023/07/15 11:24:46;;;;;;;8.70;2.90;;;;;;;40.25;22.73;100085.58;224255;1267;95961;-88
2023/07/15 11:29:56;;;;;;;5.10;3.00;;;;;;;40.42;21.97;100081.25;223521;1264;139917;-88
2023/07/15 11:34:57;;;;;;;5.30;2.90;;;;;;;40.06;22.03;100074.20;224082;1264;137830;-89
2023/07/15 11:39:59;;;;;;;5.70;2.90;;;;;;;39.62;22.39;100070.00;223616;1266;141362;-89
2023/07/15 11:44:59;;;;;;;6.10;3.60;;;;;;;40.04;22.25;100071.48;224171;1264;137962;-83
2023/07/15 11:50:00;;;;;;;5.80;3.20;;;;;;;39.86;21.86;100074.25;223590;1264;139395;-88
2023/07/15 11:55:01;;;;;;;5.40;3.10;;;;;;;39.69;22.23;100060.88;224239;1266;95870;-87
2023/07/15 12:00:01;;;;;;;8.00;3.10;;;;;;;39.69;21.48;100059.33;223536;1266;139500;-88
2023/07/15 12:05:02;;;;;;;6.90;3.10;;;;;;;39.30;21.34;100059.56;224171;1267;138048;-88
2023/07/15 12:10:08;;;;;;;6.40;2.80;;;;;;;39.08;22.24;100054.50;223630;1265;141310;-86
2023/07/15 12:15:09;;;;;;;19.70;10.80;;;;;;;39.35;22.09;100048.48;223972;1265;138483;-87
2023/07/15 12:20:11;;;;;;;5.50;2.70;;;;;;;38.88;21.19;100045.40;223575;1268;140583;-88
2023/07/15 12:25:13;;;;;;;6.30;3.40;;;;;;;38.52;21.69;100044.58;224246;1264;96095;-88
2023/07/15 12:30:13;;;;;;;10.30;4.20;;;;;;;38.67;21.85;100042.69;223559;1264;139977;-89
2023/07/15 12:35:14;;;;;;;4.50;3.10;;;;;;;38.44;21.70;100047.66;224096;1264;138134;-86
2023/07/15 12:40:14;;;;;;;5.80;2.70;;;;;;;38.24;22.21;100044.33;223518;1264;140814;-88
2023/07/15 12:45:15;;;;;;;5.90;2.50;;;;;;;38.28;21.75;100032.39;224133;1264;138771;-88
2023/07/15 12:50:16;;;;;;;4.50;3.00;;;;;;;38.09;21.69;100034.80;223585;1264;141879;-88
2023/07/15 12:55:17;;;;;;;6.40;3.50;;;;;;;38.01;22.07;100032.02;224128;1264;96018;-89
2023/07/15 13:00:17;;;;;;;4.90;2.40;;;;;;;38.04;22.61;100021.54;223596;1264;142402;-87
2023/07/15 13:05:18;;;;;;;5.90;3.10;;;;;;;38.30;22.30;100018.43;224141;1264;138322;-86
2023/07/15 13:10:19;;;;;;;6.20;3.10;;;;;;;38.34;22.29;100009.11;223540;1264;139883;-88
2023/07/15 13:15:19;;;;;;;9.90;4.00;;;;;;;38.42;22.39;100019.22;224160;1264;138611;-88
2023/07/15 13:20:20;;;;;;;4.30;2.80;;;;;;;38.23;21.35;100023.08;223607;1264;139784;-89
2023/07/15 13:25:20;;;;;;;7.00;3.10;;;;;;;38.08;21.69;100010.13;224202;1264;96028;-89
2023/07/15 13:30:21;;;;;;;5.10;2.70;;;;;;;38.28;22.09;100004.95;223628;1264;139315;-88
2023/07/15 13:35:21;;;;;;;5.40;3.00;;;;;;;38.43;21.98;100003.27;224125;1264;138057;-86
2023/07/15 13:40:22;;;;;;;5.60;2.80;;;;;;;38.43;21.55;100008.02;223623;1264;139599;-89
2023/07/15 13:45:23;;;;;;;5.00;2.80;;;;;;;38.27;21.54;100004.41;224073;1264;138221;-89
2023/07/15 13:50:23;;;;;;;5.30;2.90;;;;;;;38.11;21.36;99995.52;223547;1264;139969;-85
2023/07/15 13:55:24;;;;;;;6.70;2.90;;;;;;;37.85;20.45;99994.31;224209;1264;95954;-87
2023/07/15 14:00:24;;;;;;;5.50;2.70;;;;;;;37.72;21.41;99996.68;223591;1264;139524;-87
2023/07/15 14:05:25;;;;;;;5.80;2.60;;;;;;;37.55;21.26;99998.44;224136;1264;137598;-88
2023/07/15 14:10:26;;;;;;;5.90;2.80;;;;;;;37.25;21.63;99999.85;223579;1264;140016;-88
2023/07/15 14:15:27;;;;;;;4.60;2.70;;;;;;;37.10;21.52;99993.81;224104;1264;137817;-87
2023/07/15 14:20:29;;;;;;;5.60;2.50;;;;;;;37.02;21.78;99989.30;223580;1264;141462;-86
2023/07/15 14:25:30;;;;;;;7.20;3.30;;;;;;;37.13;22.05;99985.21;224068;1264;137715;-87
2023/07/15 14:30:31;;;;;;;4.50;2.60;;;;;;;37.15;21.90;99982.80;223699;1264;139913;-87
2023/07/15 14:35:33;;;;;;;6.00;2.90;;;;;;;36.97;22.16;99983.66;224138;1264;137540;-88
2023/07/15 14:40:33;;;;;;;5.90;3.10;;;;;;;36.89;22.41;99978.24;223602;1264;140852;-88
2023/07/15 14:45:34;;;;;;;6.30;2.80;;;;;;;36.76;22.52;99980.59;224111;1264;137806;-88
2023/07/15 14:50:34;;;;;;;7.00;2.90;;;;;;;36.60;22.27;99981.92;223532;1264;141084;-88
2023/07/15 14:55:36;;;;;;;4.80;2.50;;;;;;;36.33;23.21;99969.38;224130;1263;138414;-87
2023/07/15 15:00:37;;;;;;;5.50;3.20;;;;;;;36.37;24.60;99961.90;223681;1263;139867;-85
2023/07/15 15:05:37;;;;;;;5.90;3.10;;;;;;;36.53;23.60;99963.04;224120;1263;137689;-88
2023/07/15 15:10:38;;;;;;;5.00;2.80;;;;;;;36.42;23.23;99958.90;223610;1264;140838;-85
2023/07/15 15:15:39;;;;;;;5.40;3.50;;;;;;;36.22;23.23;99956.89;224057;1263;138414;-86
2023/07/15 15:20:39;;;;;;;5.20;2.80;;;;;;;36.13;23.59;99942.34;223465;1266;139564;-89
2023/07/15 15:25:40;;;;;;;5.50;2.70;;;;;;;36.00;23.47;99940.66;223967;1264;137860;-86
2023/07/15 15:30:40;;;;;;;5.10;2.80;;;;;;;35.90;23.47;99934.46;223684;1263;139190;-85
2023/07/15 15:35:41;;;;;;;6.70;3.20;;;;;;;35.84;23.81;99927.70;224112;1264;137906;-85
2023/07/15 15:40:41;;;;;;;6.30;2.90;;;;;;;35.84;24.33;99926.73;223629;1264;139873;-85
2023/07/15 15:45:42;;;;;;;4.40;2.90;;;;;;;35.76;24.40;99925.63;224122;1263;138228;-85
2023/07/15 15:50:42;;;;;;;5.00;2.70;;;;;;;35.64;24.73;99916.31;223541;1263;139365;-84
2023/07/15 15:55:43;;;;;;;6.40;2.70;;;;;;;35.56;24.65;99918.36;224138;1264;137747;-86
2023/07/15 16:00:43;;;;;;;6.40;3.00;;;;;;;35.42;24.50;99913.48;223698;1263;140629;-86
2023/07/15 16:05:44;;;;;;;5.80;2.90;;;;;;;35.25;24.72;99911.61;224097;1263;137937;-87
2023/07/15 16:10:44;;;;;;;6.10;2.60;;;;;;;35.03;24.98;99909.88;223561;1264;140122;-87
2023/07/15 16:15:46;;;;;;;5.30;3.10;;;;;;;34.87;25.20;99918.87;224064;1264;139097;-85
2023/07/15 16:20:47;;;;;;;7.00;2.80;;;;;;;34.73;25.05;99922.55;223597;1264;143145;-86
2023/07/15 16:25:47;;;;;;;5.30;2.40;;;;;;;34.55;25.53;99919.91;224122;1264;138347;-84
2023/07/15 16:30:48;;;;;;;5.40;2.30;;;;;;;34.39;25.94;99915.60;223748;1263;140956;-86
2023/07/15 16:35:48;;;;;;;5.10;2.90;;;;;;;34.27;26.29;99911.89;224194;1263;138288;-85
2023/07/15 16:40:49;;;;;;;6.20;2.80;;;;;;;34.11;26.92;99909.59;223584;1264;140680;-85
2023/07/15 16:45:49;;;;;;;4.60;2.50;;;;;;;34.02;26.95;99909.27;224153;1264;138403;-85
2023/07/15 16:50:50;;;;;;;6.90;2.60;;;;;;;33.88;26.64;99907.77;223560;1264;142190;-85
2023/07/15 16:55:50;;;;;;;6.70;2.90;;;;;;;33.76;26.59;99902.75;224100;1264;138407;-85
2023/07/15 17:00:52;;;;;;;6.80;2.80;;;;;;;33.61;26.82;99898.80;223670;1264;141344;-85
2023/07/15 17:05:52;;;;;;;4.30;2.40;;;;;;;33.52;27.07;99900.27;224074;1264;138423;-85
2023/07/15 17:10:52;;;;;;;7.20;2.60;;;;;;;33.44;27.26;99909.76;223631;1264;140847;-87
2023/07/15 17:15:53;;;;;;;9.40;3.00;;;;;;;33.33;27.07;99911.21;224121;1264;137786;-85
2023/07/15 17:20:55;;;;;;;5.00;2.90;;;;;;;33.21;27.28;99904.48;223513;1264;140845;-84
2023/07/15 17:25:55;;;;;;;6.00;2.70;;;;;;;33.10;27.52;99910.95;224110;1264;138372;-84
2023/07/15 17:30:56;;;;;;;6.50;2.70;;;;;;;32.95;27.64;99908.73;223671;1264;141575;-84
2023/07/15 17:35:56;;;;;;;7.40;3.00;;;;;;;32.82;27.72;99912.56;224161;1264;138611;-85
2023/07/15 17:40:57;;;;;;;4.60;2.70;;;;;;;32.73;27.75;99908.42;223622;1264;139566;-86
2023/07/15 17:45:57;;;;;;;5.90;2.60;;;;;;;32.66;27.87;99911.13;224073;1264;138611;-84
2023/07/15 17:50:58;;;;;;;5.40;3.10;;;;;;;32.54;28.20;99913.64;223566;1263;140772;-84
2023/07/15 17:56:00;;;;;;;5.70;3.10;;;;;;;32.41;28.60;99914.40;223998;1264;138543;-85
2023/07/15 18:01:02;;;;;;;6.60;3.00;;;;;;;32.31;28.66;99917.80;223753;1264;140687;-85
2023/07/15 18:06:02;;;;;;;9.90;5.60;;;;;;;32.20;28.84;99916.80;224186;1264;137646;-84
2023/07/15 18:11:03;;;;;;;32.90;29.70;;;;;;;32.03;30.72;99925.54;223593;1264;140056;-84
2023/07/15 18:16:04;;;;;;;62.80;57.00;;;;;;;31.79;31.80;99919.41;224105;1264;138176;-84
2023/07/15 18:21:05;;;;;;;92.70;85.20;;;;;;;31.59;32.18;99919.96;223505;1264;141422;-84
2023/07/15 18:26:05;;;;;;;136.40;125.40;;;;;;;31.33;33.53;99916.88;224111;1264;138236;-84
2023/07/15 18:31:06;;;;;;;201.20;184.90;;;;;;;31.07;34.53;99925.40;223734;1264;140979;-84
2023/07/15 18:36:07;;;;;;;8.90;6.40;;;;;;;30.78;35.25;99933.42;224065;1264;139270;-84
2023/07/15 18:41:07;;;;;;;8.00;5.00;;;;;;;30.50;36.17;99929.24;223615;1264;140157;-83
2023/07/15 18:46:08;;;;;;;8.40;4.60;;;;;;;30.22;37.04;99929.45;224044;1264;138646;-84
2023/07/15 18:51:09;;;;;;;8.00;4.50;;;;;;;29.93;37.84;99935.69;223621;1264;139808;-84
2023/07/15 18:56:09;;;;;;;9.50;4.10;;;;;;;29.69;38.87;99940.30;224134;1264;138048;-83
2023/07/15 19:01:10;;;;;;;10.20;4.40;;;;;;;29.41;39.41;99945.98;223721;1264;140284;-83
2023/07/15 19:06:10;;;;;;;8.30;4.50;;;;;;;29.18;40.33;99944.35;224136;1264;139200;-84
2023/07/15 19:11:11;;;;;;;9.20;4.70;;;;;;;28.94;40.72;99943.52;223580;1264;139806;-84
2023/07/15 19:16:11;;;;;;;7.20;3.90;;;;;;;28.74;41.13;99939.45;224104;1264;138610;-84
2023/07/15 19:21:12;;;;;;;5.90;3.30;;;;;;;28.50;41.44;99937.97;223551;1265;139895;-84
2023/07/15 19:26:12;;;;;;;8.90;4.00;;;;;;;28.30;42.03;99935.20;224034;1264;138409;-84
2023/07/15 19:31:13;;;;;;;7.80;4.20;;;;;;;28.05;42.83;99934.80;223722;1264;139644;-85
2023/07/15 19:36:14;;;;;;;9.50;4.10;;;;;;;27.88;42.87;99933.34;224186;1265;138158;-85
2023/07/15 19:41:15;;;;;;;18.30;6.80;;;;;;;27.82;42.79;99928.31;223617;1264;139952;-84
2023/07/15 19:46:16;;;;;;;26.30;9.70;;;;;;;27.76;43.16;99926.27;224093;1263;138652;-84
2023/07/15 19:51:16;;;;;;;22.10;7.80;;;;;;;27.62;43.37;99933.94;223572;1264;139818;-85
2023/07/15 19:56:17;;;;;;;17.80;7.10;;;;;;;27.49;43.61;99933.27;224069;1264;138598;-84
2023/07/15 20:01:17;;;;;;;11.80;5.20;;;;;;;27.35;43.86;99929.70;223685;1264;142178;-85
2023/07/15 20:06:18;;;;;;;23.00;8.30;;;;;;;27.21;43.57;99930.20;224157;1263;137714;-85
2023/07/15 20:11:18;;;;;;;18.20;6.70;;;;;;;27.10;43.79;99930.45;223654;1263;140615;-84
2023/07/15 20:16:18;;;;;;;15.90;6.50;;;;;;;26.97;43.59;99933.64;224059;1265;138890;-84
2023/07/15 20:21:19;;;;;;;16.10;5.80;;;;;;;26.84;44.13;99936.19;223602;1265;141474;-85
2023/07/15 20:26:19;;;;;;;14.50;5.80;;;;;;;26.73;44.29;99939.27;224177;1264;138598;-85
2023/07/15 20:31:20;;;;;;;12.10;5.20;;;;;;;26.60;44.21;99938.45;223742;1263;139735;-84
2023/07/15 20:36:20;;;;;;;16.70;5.90;;;;;;;26.49;45.33;99933.34;224164;1264;137833;-85
2023/07/15 20:41:21;;;;;;;11.80;5.30;;;;;;;26.39;45.22;99932.36;223534;1264;140020;-85
2023/07/15 20:46:21;;;;;;;10.60;4.60;;;;;;;26.28;46.04;99926.39;224092;1264;138663;-84
2023/07/15 20:51:22;;;;;;;12.20;4.80;;;;;;;26.18;45.57;99928.37;223625;1263;139366;-85
2023/07/15 20:56:23;;;;;;;9.50;4.00;;;;;;;26.08;44.98;99929.23;224157;1264;138082;-85
2023/07/15 21:01:23;;;;;;;9.80;5.00;;;;;;;25.96;45.28;99922.93;223745;1264;139515;-85
2023/07/15 21:06:24;;;;;;;8.90;4.00;;;;;;;25.87;45.39;99924.52;224117;1263;137663;-85
2023/07/15 21:11:26;;;;;;;9.90;4.70;;;;;;;25.80;44.87;99928.98;223457;1264;140504;-84
2023/07/15 21:16:26;;;;;;;9.10;4.50;;;;;;;25.72;44.74;99923.30;224014;1264;138390;-83
2023/07/15 21:21:27;;;;;;;10.90;4.90;;;;;;;25.65;45.10;99926.88;223589;1264;141809;-81
2023/07/15 21:26:27;;;;;;;10.60;4.60;;;;;;;25.56;45.58;99933.53;224130;1264;138351;-81
2023/07/15 21:31:29;;;;;;;10.50;4.20;;;;;;;25.48;46.06;99934.02;223607;1265;141878;-84
2023/07/15 21:36:29;;;;;;;9.40;4.60;;;;;;;25.39;46.27;99927.54;224277;1265;95853;-83
2023/07/15 21:41:30;;;;;;;9.70;4.60;;;;;;;25.31;46.31;99923.48;223402;1264;280777;-83
2023/07/15 21:46:30;;;;;;;9.10;4.40;;;;;;;25.24;45.82;99913.66;224118;1264;138008;-83
2023/07/15 21:51:31;;;;;;;7.50;4.00;;;;;;;25.19;45.83;99923.97;223499;1264;140856;-84
2023/07/15 21:56:31;;;;;;;8.40;3.40;;;;;;;25.15;46.16;99924.61;224167;1264;138041;-83
2023/07/15 22:01:32;;;;;;;10.20;4.60;;;;;;;25.11;46.41;99923.84;223540;1264;139199;-83
2023/07/15 22:06:32;;;;;;;8.40;4.10;;;;;;;25.08;46.45;99921.58;224315;1264;96025;-84
2023/07/15 22:11:33;;;;;;;8.40;4.00;;;;;;;25.06;46.09;99910.24;223640;1264;140161;-85
2023/07/15 22:16:34;;;;;;;7.30;3.90;;;;;;;25.11;45.72;99906.59;224166;1264;138823;-84
2023/07/15 22:21:34;;;;;;;7.70;3.70;;;;;;;25.17;45.15;99904.44;223539;1265;139632;-84
2023/07/15 22:26:35;;;;;;;8.50;4.00;;;;;;;25.19;45.01;99905.65;224207;1264;138335;-83
2023/07/15 22:31:35;;;;;;;7.60;3.60;;;;;;;25.20;45.20;99900.80;223596;1264;139662;-85